createdAt,value
2017-05-28T00:00:23.829Z,0
2017-05-28T00:01:11.601Z,0
2017-05-28T00:01:59.814Z,0
2017-05-28T00:02:48.854Z,0
2017-05-28T00:03:42.797Z,0
2017-05-28T00:04:36.821Z,0
2017-05-28T00:05:25.754Z,0
2017-05-28T00:06:13.790Z,0
2017-05-28T00:07:01.830Z,0
2017-05-28T00:08:07.861Z,0
2017-05-28T00:09:07.937Z,0
2017-05-28T00:10:07.953Z,0
2017-05-28T00:11:07.969Z,0
2017-05-28T00:12:01.972Z,0
2017-05-28T00:13:02.013Z,0
2017-05-28T00:13:57.088Z,0
2017-05-28T00:14:52.200Z,0
2017-05-28T00:15:53.100Z,0
2017-05-28T00:16:48.153Z,0
2017-05-28T00:17:36.236Z,0
2017-05-28T00:18:31.262Z,0
2017-05-28T00:19:26.334Z,0
2017-05-28T00:20:26.332Z,0
2017-05-28T00:21:32.382Z,0
2017-05-28T00:22:21.468Z,0
2017-05-28T00:23:15.423Z,0
2017-05-28T00:24:16.067Z,0
2017-05-28T00:25:10.533Z,0
2017-05-28T00:26:10.613Z,0
2017-05-28T00:27:10.637Z,0
2017-05-28T00:28:10.657Z,0
2017-05-28T00:29:04.755Z,0
2017-05-28T00:30:05.719Z,0
2017-05-28T00:31:05.742Z,0
2017-05-28T00:32:00.899Z,0
2017-05-28T00:32:55.883Z,0
2017-05-28T00:34:01.908Z,0
2017-05-28T00:34:55.936Z,0
2017-05-28T00:35:56.956Z,0
2017-05-28T00:36:56.989Z,0
2017-05-28T00:37:57.065Z,0
2017-05-28T00:38:57.100Z,0
2017-05-28T00:39:57.163Z,0
2017-05-28T00:40:57.175Z,0
2017-05-28T00:41:57.180Z,0
2017-05-28T00:42:57.254Z,0
2017-05-28T00:43:57.306Z,0
2017-05-28T00:44:58.418Z,0
2017-05-28T00:45:53.369Z,0
2017-05-28T00:46:53.346Z,0
2017-05-28T00:47:47.375Z,0
2017-05-28T00:48:48.445Z,0
2017-05-28T00:49:48.563Z,0
2017-05-28T00:50:43.510Z,0
2017-05-28T00:51:43.568Z,0
2017-05-28T00:52:43.562Z,0
2017-05-28T00:53:43.642Z,0
2017-05-28T00:54:37.639Z,0
2017-05-28T00:55:37.742Z,0
2017-05-28T00:56:33.280Z,0
2017-05-28T00:57:27.747Z,0
2017-05-28T00:58:27.817Z,0
2017-05-28T00:59:22.833Z,0
2017-05-28T01:00:22.920Z,0
2017-05-28T01:01:23.963Z,0
2017-05-28T01:02:18.006Z,0
2017-05-28T01:03:17.982Z,0
2017-05-28T01:04:13.084Z,0
2017-05-28T01:05:08.114Z,0
2017-05-28T01:06:09.027Z,0
2017-05-28T01:07:04.199Z,0
2017-05-28T01:07:59.134Z,0
2017-05-28T01:09:00.193Z,0
2017-05-28T01:10:00.296Z,0
2017-05-28T01:10:55.272Z,0
2017-05-28T01:11:55.332Z,0
2017-05-28T01:12:49.368Z,0
2017-05-28T01:13:49.356Z,0
2017-05-28T01:14:44.419Z,0
2017-05-28T01:15:39.441Z,0
2017-05-28T01:16:39.513Z,0
2017-05-28T01:17:34.524Z,0
2017-05-28T01:18:29.609Z,0
2017-05-28T01:19:30.641Z,0
2017-05-28T01:20:31.150Z,0
2017-05-28T01:21:25.658Z,0
2017-05-28T01:22:25.763Z,0
2017-05-28T01:23:19.775Z,0
2017-05-28T01:24:20.072Z,0
2017-05-28T01:25:14.857Z,0
2017-05-28T01:26:09.950Z,0
2017-05-28T01:27:09.945Z,0
2017-05-28T01:28:04.968Z,0
2017-05-28T01:29:00.139Z,0
2017-05-28T01:30:01.020Z,0
2017-05-28T01:31:01.089Z,0
2017-05-28T01:31:56.155Z,0
2017-05-28T01:32:56.167Z,0
2017-05-28T01:33:50.215Z,0
2017-05-28T01:34:50.236Z,0
2017-05-28T01:35:45.285Z,0
2017-05-28T01:36:40.356Z,0
2017-05-28T01:37:40.360Z,0
2017-05-28T01:38:35.456Z,0
2017-05-28T01:39:30.450Z,0
2017-05-28T01:40:30.521Z,0
2017-05-28T01:41:25.575Z,0
2017-05-28T01:42:20.561Z,0
2017-05-28T01:43:15.594Z,0
2017-05-28T01:44:09.686Z,0
2017-05-28T01:44:57.659Z,0
2017-05-28T01:45:45.720Z,0
2017-05-28T01:46:33.761Z,0
2017-05-28T01:47:21.885Z,0
2017-05-28T01:48:10.912Z,0
2017-05-28T01:49:05.914Z,0
2017-05-28T01:50:05.955Z,0
2017-05-28T01:50:53.987Z,0
2017-05-28T01:51:48.035Z,0
2017-05-28T01:52:42.055Z,0
2017-05-28T01:53:37.137Z,0
2017-05-28T01:54:31.161Z,0
2017-05-28T01:55:26.209Z,0
2017-05-28T01:56:21.203Z,0
2017-05-28T01:57:15.349Z,0
2017-05-28T01:58:09.319Z,0
2017-05-28T01:59:03.361Z,0
2017-05-28T01:59:51.443Z,0
2017-05-28T02:00:40.462Z,0
2017-05-28T02:01:28.588Z,0
2017-05-28T02:02:16.560Z,0
2017-05-28T02:03:05.536Z,0
2017-05-28T02:03:53.665Z,0
2017-05-28T02:04:41.663Z,0
2017-05-28T02:05:30.768Z,0
2017-05-28T02:06:18.817Z,0
2017-05-28T02:07:12.847Z,0
2017-05-28T02:08:06.874Z,0
2017-05-28T02:09:01.048Z,0
2017-05-28T02:09:55.933Z,0
2017-05-28T02:10:49.989Z,0
2017-05-28T02:11:45.044Z,0
2017-05-28T02:12:45.077Z,0
2017-05-28T02:13:40.353Z,0
2017-05-28T02:14:35.177Z,0
2017-05-28T02:15:29.196Z,0
2017-05-28T02:16:23.226Z,0
2017-05-28T02:17:18.253Z,0
2017-05-28T02:18:18.277Z,0
2017-05-28T02:19:13.357Z,0
2017-05-28T02:20:08.433Z,0
2017-05-28T02:20:57.467Z,0
2017-05-28T02:21:46.435Z,0
2017-05-28T02:22:34.498Z,0
2017-05-28T02:23:22.624Z,0
2017-05-28T02:24:10.609Z,0
2017-05-28T02:24:59.674Z,0
2017-05-28T02:25:53.722Z,0
2017-05-28T02:26:53.773Z,0
2017-05-28T02:27:48.780Z,0
2017-05-28T02:28:48.837Z,0
2017-05-28T02:29:42.844Z,4
2017-05-28T02:30:42.964Z,4
2017-05-28T02:31:37.946Z,0
2017-05-28T02:32:31.965Z,0
2017-05-28T02:33:26.998Z,4
2017-05-28T02:34:21.322Z,4
2017-05-28T02:35:16.085Z,4
2017-05-28T02:36:16.157Z,4
2017-05-28T02:37:11.130Z,4
2017-05-28T02:38:06.235Z,4
2017-05-28T02:39:06.235Z,4
2017-05-28T02:40:01.266Z,8
2017-05-28T02:40:56.416Z,4
2017-05-28T02:41:45.353Z,8
2017-05-28T02:42:40.422Z,8
2017-05-28T02:43:35.925Z,8
2017-05-28T02:44:30.003Z,8
2017-05-28T02:45:23.558Z,12
2017-05-28T02:46:18.549Z,12
2017-05-28T02:47:12.654Z,16
2017-05-28T02:48:12.639Z,20
2017-05-28T02:49:06.654Z,20
2017-05-28T02:50:00.750Z,20
2017-05-28T02:50:54.749Z,24
2017-05-28T02:51:49.813Z,24
2017-05-28T02:52:50.108Z,32
2017-05-28T02:53:44.913Z,32
2017-05-28T02:54:38.953Z,40
2017-05-28T02:55:33.953Z,44
2017-05-28T02:56:28.539Z,48
2017-05-28T02:57:28.044Z,52
2017-05-28T02:58:23.116Z,56
2017-05-28T02:59:18.159Z,64
2017-05-28T03:00:12.204Z,72
2017-05-28T03:01:07.260Z,80
2017-05-28T03:02:01.245Z,88
2017-05-28T03:02:56.268Z,96
2017-05-28T03:03:50.552Z,108
2017-05-28T03:04:44.399Z,120
2017-05-28T03:05:38.440Z,132
2017-05-28T03:06:33.441Z,144
2017-05-28T03:07:33.519Z,156
2017-05-28T03:08:28.549Z,172
2017-05-28T03:09:23.569Z,184
2017-05-28T03:10:17.618Z,200
2017-05-28T03:11:12.682Z,216
2017-05-28T03:12:06.708Z,236
2017-05-28T03:13:00.743Z,256
2017-05-28T03:14:06.742Z,280
2017-05-28T03:15:01.812Z,304
2017-05-28T03:15:55.870Z,332
2017-05-28T03:16:55.917Z,364
2017-05-28T03:17:50.926Z,388
2017-05-28T03:18:50.967Z,420
2017-05-28T03:19:50.967Z,456
2017-05-28T03:20:51.131Z,492
2017-05-28T03:21:45.088Z,532
2017-05-28T03:22:45.133Z,580
2017-05-28T03:23:40.481Z,624
2017-05-28T03:24:35.223Z,664
2017-05-28T03:25:29.214Z,704
2017-05-28T03:26:29.284Z,748
2017-05-28T03:27:24.317Z,796
2017-05-28T03:28:19.336Z,852
2017-05-28T03:29:19.431Z,916
2017-05-28T03:30:14.399Z,976
2017-05-28T03:31:09.435Z,1044
2017-05-28T03:32:03.557Z,1112
2017-05-28T03:33:04.522Z,1188
2017-05-28T03:34:04.573Z,1256
2017-05-28T03:35:04.630Z,1324
2017-05-28T03:35:59.685Z,1388
2017-05-28T03:36:59.697Z,1468
2017-05-28T03:37:59.826Z,1568
2017-05-28T03:38:59.780Z,1688
2017-05-28T03:39:59.831Z,1832
2017-05-28T03:40:59.840Z,1984
2017-05-28T03:42:05.899Z,2164
2017-05-28T03:43:00.922Z,2304
2017-05-28T03:43:54.989Z,2440
2017-05-28T03:44:55.052Z,2584
2017-05-28T03:45:50.014Z,2716
2017-05-28T03:46:45.098Z,2848
2017-05-28T03:47:45.166Z,2984
2017-05-28T03:48:40.133Z,3088
2017-05-28T03:49:35.272Z,3188
2017-05-28T03:50:30.231Z,3280
2017-05-28T03:51:18.299Z,3356
2017-05-28T03:52:12.338Z,3444
2017-05-28T03:53:01.381Z,3540
2017-05-28T03:53:49.482Z,3600
2017-05-28T03:54:38.458Z,3672
2017-05-28T03:55:26.549Z,3748
2017-05-28T03:56:20.541Z,3844
2017-05-28T03:57:15.643Z,3900
2017-05-28T03:58:15.694Z,3884
2017-05-28T03:59:03.801Z,3904
2017-05-28T03:59:51.712Z,3852
2017-05-28T04:00:40.824Z,3852
2017-05-28T04:01:28.819Z,3852
2017-05-28T04:02:28.851Z,3860
2017-05-28T04:03:17.943Z,3812
2017-05-28T04:04:05.964Z,3800
2017-05-28T04:05:00.046Z,3708
2017-05-28T04:05:49.129Z,3692
2017-05-28T04:06:37.149Z,3632
2017-05-28T04:07:31.183Z,3608
2017-05-28T04:08:25.215Z,3524
2017-05-28T04:09:19.468Z,3500
2017-05-28T04:10:13.292Z,3452
2017-05-28T04:11:07.419Z,3388
2017-05-28T04:12:01.365Z,3316
2017-05-28T04:12:50.449Z,3220
2017-05-28T04:13:38.493Z,3148
2017-05-28T04:14:33.527Z,3128
2017-05-28T04:15:27.572Z,2996
2017-05-28T04:16:16.566Z,2868
2017-05-28T04:17:10.628Z,2692
2017-05-28T04:17:59.743Z,2600
2017-05-28T04:18:53.737Z,2512
2017-05-28T04:19:47.823Z,2416
2017-05-28T04:20:47.841Z,2288
2017-05-28T04:21:41.840Z,2248
2017-05-28T04:22:47.875Z,2188
2017-05-28T04:23:37.619Z,2156
2017-05-28T04:24:26.521Z,2232
2017-05-28T04:25:20.273Z,2300
2017-05-28T04:26:14.076Z,2340
2017-05-28T04:27:09.146Z,2348
2017-05-28T04:27:57.151Z,2364
2017-05-28T04:28:51.214Z,2368
2017-05-28T04:29:45.251Z,2392
2017-05-28T04:30:39.326Z,2504
2017-05-28T04:31:34.346Z,2644
2017-05-28T04:32:29.388Z,2800
2017-05-28T04:33:18.437Z,2932
2017-05-28T04:34:07.458Z,3004
2017-05-28T04:35:07.526Z,3052
2017-05-28T04:36:02.551Z,3044
2017-05-28T04:36:51.665Z,3028
2017-05-28T04:37:46.736Z,3036
2017-05-28T04:38:40.634Z,2972
2017-05-28T04:39:40.774Z,2944
2017-05-28T04:40:40.753Z,2964
2017-05-28T04:41:34.907Z,3000
2017-05-28T04:42:29.865Z,3060
2017-05-28T04:43:24.995Z,3176
2017-05-28T04:44:18.990Z,3440
2017-05-28T04:45:07.050Z,3604
2017-05-28T04:46:07.059Z,3720
2017-05-28T04:46:56.138Z,3788
2017-05-28T04:47:45.135Z,3788
2017-05-28T04:48:45.173Z,3856
2017-05-28T04:49:45.250Z,3816
2017-05-28T04:50:34.235Z,3840
2017-05-28T04:51:28.323Z,3804
2017-05-28T04:52:28.489Z,3756
2017-05-28T04:53:22.419Z,3736
2017-05-28T04:54:22.439Z,3716
2017-05-28T04:55:17.474Z,3716
2017-05-28T04:56:11.528Z,3712
2017-05-28T04:56:59.557Z,3732
2017-05-28T04:57:54.653Z,3792
2017-05-28T04:58:43.636Z,3808
2017-05-28T04:59:37.753Z,3836
2017-05-28T05:00:37.746Z,3904
2017-05-28T05:01:26.838Z,3924
2017-05-28T05:02:26.823Z,3944
2017-05-28T05:03:20.918Z,3976
2017-05-28T05:04:14.911Z,4028
2017-05-28T05:05:02.935Z,4064
2017-05-28T05:05:50.970Z,4100
2017-05-28T05:06:52.027Z,4080
2017-05-28T05:07:52.127Z,4024
2017-05-28T05:08:41.675Z,3976
2017-05-28T05:09:36.173Z,3952
2017-05-28T05:10:36.234Z,4020
2017-05-28T05:11:30.274Z,4016
2017-05-28T05:12:30.313Z,3960
2017-05-28T05:13:25.359Z,3832
2017-05-28T05:14:20.615Z,3660
2017-05-28T05:15:14.467Z,3532
2017-05-28T05:16:14.460Z,3492
2017-05-28T05:17:09.532Z,3548
2017-05-28T05:18:04.576Z,3608
2017-05-28T05:18:52.654Z,3688
2017-05-28T05:19:52.663Z,3732
2017-05-28T05:20:46.680Z,3740
2017-05-28T05:21:41.736Z,3644
2017-05-28T05:22:36.779Z,3584
2017-05-28T05:23:30.821Z,3668
2017-05-28T05:24:18.898Z,3896
2017-05-28T05:25:07.955Z,4176
2017-05-28T05:25:56.945Z,4452
2017-05-28T05:26:50.966Z,4756
2017-05-28T05:27:52.078Z,4980
2017-05-28T05:28:53.084Z,5024
2017-05-28T05:29:54.143Z,4896
2017-05-28T05:30:54.227Z,4684
2017-05-28T05:31:54.204Z,4400
2017-05-28T05:32:54.221Z,4060
2017-05-28T05:33:49.312Z,3768
2017-05-28T05:34:37.337Z,3528
2017-05-28T05:35:31.443Z,3252
2017-05-28T05:36:19.459Z,3124
2017-05-28T05:37:13.474Z,3108
2017-05-28T05:38:01.524Z,3188
2017-05-28T05:38:56.556Z,3316
2017-05-28T05:39:51.651Z,3388
2017-05-28T05:40:40.663Z,3456
2017-05-28T05:41:29.737Z,3432
2017-05-28T05:42:18.746Z,3352
2017-05-28T05:43:12.808Z,3208
2017-05-28T05:44:12.853Z,3052
2017-05-28T05:45:06.874Z,2848
2017-05-28T05:46:06.946Z,2644
2017-05-28T05:47:01.050Z,2492
2017-05-28T05:48:02.075Z,2424
2017-05-28T05:49:02.115Z,2404
2017-05-28T05:49:56.144Z,2388
2017-05-28T05:50:56.587Z,2400
2017-05-28T05:51:56.216Z,2464
2017-05-28T05:52:51.416Z,2532
2017-05-28T05:53:46.301Z,2640
2017-05-28T05:54:46.302Z,2824
2017-05-28T05:55:41.354Z,3092
2017-05-28T05:56:36.412Z,3464
2017-05-28T05:57:31.438Z,3920
2017-05-28T05:58:26.473Z,4544
2017-05-28T05:59:21.534Z,5204
2017-05-28T06:00:10.552Z,5816
2017-05-28T06:01:05.612Z,6548
2017-05-28T06:02:05.652Z,7228
2017-05-28T06:03:00.721Z,7844
2017-05-28T06:03:54.799Z,8312
2017-05-28T06:04:54.817Z,8792
2017-05-28T06:05:48.843Z,9292
2017-05-28T06:06:42.935Z,9780
2017-05-28T06:07:36.962Z,10164
2017-05-28T06:08:37.394Z,10448
2017-05-28T06:09:26.012Z,10584
2017-05-28T06:10:14.045Z,10644
2017-05-28T06:11:03.103Z,10680
2017-05-28T06:11:52.150Z,10696
2017-05-28T06:12:40.247Z,10688
2017-05-28T06:13:34.235Z,10804
2017-05-28T06:14:29.614Z,10988
2017-05-28T06:15:23.349Z,11388
2017-05-28T06:16:23.911Z,11824
2017-05-28T06:17:17.434Z,11840
2017-05-28T06:18:06.468Z,11736
2017-05-28T06:18:55.553Z,11504
2017-05-28T06:19:43.840Z,11136
2017-05-28T06:20:38.655Z,10632
2017-05-28T06:21:26.687Z,10124
2017-05-28T06:22:21.728Z,10000
2017-05-28T06:23:22.764Z,9484
2017-05-28T06:24:23.303Z,8740
2017-05-28T06:25:17.851Z,7968
2017-05-28T06:26:17.828Z,7024
2017-05-28T06:27:12.923Z,6084
2017-05-28T06:28:07.969Z,5164
2017-05-28T06:29:07.988Z,4300
2017-05-28T06:30:03.061Z,3580
2017-05-28T06:31:03.110Z,2976
2017-05-28T06:32:04.155Z,2396
2017-05-28T06:33:04.265Z,2100
2017-05-28T06:33:59.264Z,1976
2017-05-28T06:34:59.240Z,1948
2017-05-28T06:35:54.318Z,1988
2017-05-28T06:36:49.535Z,2056
2017-05-28T06:37:38.419Z,2116
2017-05-28T06:38:32.446Z,2204
2017-05-28T06:39:27.476Z,2288
2017-05-28T06:40:23.078Z,2356
2017-05-28T06:41:16.573Z,2436
2017-05-28T06:42:04.634Z,2516
2017-05-28T06:42:58.660Z,2676
2017-05-28T06:43:47.772Z,2868
2017-05-28T06:44:35.744Z,3072
2017-05-28T06:45:23.834Z,3268
2017-05-28T06:46:11.843Z,3512
2017-05-28T06:47:05.964Z,3792
2017-05-28T06:47:53.950Z,4024
2017-05-28T06:48:42.955Z,4264
2017-05-28T06:49:37.051Z,4560
2017-05-28T06:50:25.062Z,4848
2017-05-28T06:51:19.148Z,5268
2017-05-28T06:52:14.345Z,5804
2017-05-28T06:53:15.246Z,6436
2017-05-28T06:54:15.247Z,6976
2017-05-28T06:55:16.292Z,7452
2017-05-28T06:56:04.352Z,7736
2017-05-28T06:56:52.366Z,7924
2017-05-28T06:57:47.442Z,8136
2017-05-28T06:58:47.481Z,8508
2017-05-28T06:59:42.515Z,9288
2017-05-28T07:00:42.533Z,10584
2017-05-28T07:01:37.601Z,11780
2017-05-28T07:02:32.639Z,13044
2017-05-28T07:03:26.660Z,14184
2017-05-28T07:04:22.219Z,15456
2017-05-28T07:05:10.758Z,17088
2017-05-28T07:06:04.852Z,18912
2017-05-28T07:06:58.880Z,20608
2017-05-28T07:07:47.935Z,21888
2017-05-28T07:08:36.137Z,22720
2017-05-28T07:09:30.978Z,23616
2017-05-28T07:10:20.043Z,24064
2017-05-28T07:11:14.075Z,25024
2017-05-28T07:12:14.138Z,29216
2017-05-28T07:13:14.160Z,30144
2017-05-28T07:14:14.170Z,24480
2017-05-28T07:15:14.226Z,21760
2017-05-28T07:16:14.262Z,20480
2017-05-28T07:17:14.374Z,19968
2017-05-28T07:18:09.369Z,19968
2017-05-28T07:19:04.420Z,20448
2017-05-28T07:19:59.457Z,21152
2017-05-28T07:20:54.490Z,21600
2017-05-28T07:21:48.528Z,22336
2017-05-28T07:22:37.581Z,22592
2017-05-28T07:23:26.642Z,21760
2017-05-28T07:24:22.270Z,20896
2017-05-28T07:25:16.037Z,20320
2017-05-28T07:26:15.740Z,20416
2017-05-28T07:27:04.852Z,21312
2017-05-28T07:27:52.872Z,25536
2017-05-28T07:28:41.518Z,28032
2017-05-28T07:29:34.968Z,46528
2017-05-28T07:30:24.063Z,26656
2017-05-28T07:31:12.059Z,24896
2017-05-28T07:32:12.156Z,26784
2017-05-28T07:33:06.218Z,23552
2017-05-28T07:33:55.309Z,22400
2017-05-28T07:34:50.356Z,21792
2017-05-28T07:35:38.455Z,22912
2017-05-28T07:36:32.510Z,51040
2017-05-28T07:37:26.640Z,50272
2017-05-28T07:38:21.653Z,72928
2017-05-28T07:39:10.730Z,55872
2017-05-28T07:39:59.218Z,57888
2017-05-28T07:40:46.950Z,65824
2017-05-28T07:41:41.935Z,69440
2017-05-28T07:42:41.968Z,64512
2017-05-28T07:43:42.640Z,58688
2017-05-28T07:44:36.134Z,83680
2017-05-28T07:45:30.176Z,61984
2017-05-28T07:46:24.262Z,65536
2017-05-28T07:47:18.338Z,67072
2017-05-28T07:48:18.428Z,70272
2017-05-28T07:49:19.467Z,74880
2017-05-28T07:50:19.526Z,75552
2017-05-28T07:51:14.570Z,74496
2017-05-28T07:52:14.650Z,78080
2017-05-28T07:53:08.764Z,77120
2017-05-28T07:54:02.829Z,79136
2017-05-28T07:54:57.905Z,79552
2017-05-28T07:55:52.046Z,76512
2017-05-28T07:56:52.349Z,75872
2017-05-28T07:57:47.243Z,73568
2017-05-28T07:58:36.168Z,72896
2017-05-28T07:59:30.268Z,74272
2017-05-28T08:00:24.358Z,75904
2017-05-28T08:01:24.417Z,75424
2017-05-28T08:02:24.521Z,75872
2017-05-28T08:03:24.846Z,77216
2017-05-28T08:04:12.664Z,78080
2017-05-28T08:05:06.751Z,74336
2017-05-28T08:06:07.184Z,64608
2017-05-28T08:07:00.951Z,72064
2017-05-28T08:07:54.949Z,75712
2017-05-28T08:08:50.331Z,72960
2017-05-28T08:09:45.140Z,71936
2017-05-28T08:10:45.220Z,70304
2017-05-28T08:11:39.748Z,74048
2017-05-28T08:12:34.395Z,74208
2017-05-28T08:13:28.480Z,76832
2017-05-28T08:14:23.607Z,79872
2017-05-28T08:15:19.085Z,80416
2017-05-28T08:16:06.636Z,81632
2017-05-28T08:16:55.753Z,79456
2017-05-28T08:17:51.117Z,85056
2017-05-28T08:18:40.246Z,85824
2017-05-28T08:19:40.118Z,84960
2017-05-28T08:20:35.086Z,83232
2017-05-28T08:21:24.149Z,88032
2017-05-28T08:22:18.240Z,88096
2017-05-28T08:23:18.645Z,86336
2017-05-28T08:24:07.708Z,84992
2017-05-28T08:25:01.929Z,80512
2017-05-28T08:25:50.045Z,75552
2017-05-28T08:26:39.103Z,74336
2017-05-28T08:27:26.800Z,72896
2017-05-28T08:28:14.843Z,71008
2017-05-28T08:29:04.021Z,70624
2017-05-28T08:29:52.035Z,69760
2017-05-28T08:30:46.751Z,67968
2017-05-28T08:31:34.154Z,68768
2017-05-28T08:32:28.413Z,65888
2017-05-28T08:33:22.517Z,66240
2017-05-28T08:34:11.801Z,43104
2017-05-28T08:35:00.869Z,67552
2017-05-28T08:35:54.574Z,69952
2017-05-28T08:36:49.049Z,68320
2017-05-28T08:37:42.767Z,53728
2017-05-28T08:38:36.856Z,47776
2017-05-28T08:39:32.124Z,40576
2017-05-28T08:40:26.220Z,35904
2017-05-28T08:41:15.076Z,42240
2017-05-28T08:42:09.199Z,66400
2017-05-28T08:43:03.215Z,70112
2017-05-28T08:44:04.316Z,65728
2017-05-28T08:44:58.392Z,34816
2017-05-28T08:45:53.903Z,22400
2017-05-28T08:46:48.819Z,22848
2017-05-28T08:47:42.643Z,26976
2017-05-28T08:48:36.746Z,53984
2017-05-28T08:49:25.818Z,66560
2017-05-28T08:50:14.901Z,67904
2017-05-28T08:51:09.989Z,67616
2017-05-28T08:52:10.086Z,67872
2017-05-28T08:53:04.411Z,68576
2017-05-28T08:54:04.239Z,64480
2017-05-28T08:55:04.319Z,73024
2017-05-28T08:55:58.598Z,72192
2017-05-28T08:56:53.696Z,77312
2017-05-28T08:57:47.839Z,39840
2017-05-28T08:58:43.178Z,70240
2017-05-28T08:59:42.710Z,81440
2017-05-28T09:00:42.754Z,84960
2017-05-28T09:01:37.260Z,59936
2017-05-28T09:02:31.905Z,51904
2017-05-28T09:03:26.144Z,55616
2017-05-28T09:04:15.430Z,69152
2017-05-28T09:05:04.432Z,82304
2017-05-28T09:05:59.458Z,77376
2017-05-28T09:06:53.559Z,60640
2017-05-28T09:07:42.433Z,44544
2017-05-28T09:08:37.859Z,65792
2017-05-28T09:09:26.928Z,52384
2017-05-28T09:10:21.100Z,50400
2017-05-28T09:11:15.969Z,77440
2017-05-28T09:12:10.854Z,80800
2017-05-28T09:13:05.949Z,80128
2017-05-28T09:13:55.337Z,79776
2017-05-28T09:14:49.142Z,80896
2017-05-28T09:15:43.180Z,82816
2017-05-28T09:16:38.264Z,82496
2017-05-28T09:17:27.573Z,78144
2017-05-28T09:18:21.676Z,74176
2017-05-28T09:19:16.110Z,70688
2017-05-28T09:20:15.972Z,70720
2017-05-28T09:21:17.133Z,72416
2017-05-28T09:22:16.737Z,75904
2017-05-28T09:23:10.830Z,76128
2017-05-28T09:24:05.267Z,66720
2017-05-28T09:25:00.190Z,58176
2017-05-28T09:25:54.378Z,52832
2017-05-28T09:26:54.301Z,52480
2017-05-28T09:27:48.423Z,58208
2017-05-28T09:28:43.912Z,59072
2017-05-28T09:29:43.882Z,64480
2017-05-28T09:30:37.944Z,69344
2017-05-28T09:31:27.005Z,69120
2017-05-28T09:32:16.100Z,64128
2017-05-28T09:33:11.177Z,39200
2017-05-28T09:34:06.291Z,41728
2017-05-28T09:34:54.388Z,48192
2017-05-28T09:35:48.886Z,80896
2017-05-28T09:36:42.541Z,89248
2017-05-28T09:37:36.600Z,83136
2017-05-28T09:38:30.661Z,72288
2017-05-28T09:39:19.812Z,69888
2017-05-28T09:40:07.885Z,79200
2017-05-28T09:40:56.967Z,65152
2017-05-28T09:41:52.016Z,52192
2017-05-28T09:42:47.118Z,86592
2017-05-28T09:43:47.257Z,68992
2017-05-28T09:44:41.236Z,77568
2017-05-28T09:45:30.352Z,65312
2017-05-28T09:46:19.442Z,43744
2017-05-28T09:47:14.462Z,40192
2017-05-28T09:48:09.610Z,39808
2017-05-28T09:49:03.681Z,38688
2017-05-28T09:49:51.838Z,36736
2017-05-28T09:50:45.873Z,35360
2017-05-28T09:51:45.954Z,34112
2017-05-28T09:52:52.018Z,32832
2017-05-28T09:53:41.083Z,32064
2017-05-28T09:54:42.239Z,31648
2017-05-28T09:55:31.277Z,31488
2017-05-28T09:56:19.432Z,30560
2017-05-28T09:57:08.426Z,29408
2017-05-28T09:58:08.316Z,28288
2017-05-28T09:58:56.637Z,27264
2017-05-28T09:59:45.591Z,26560
2017-05-28T10:00:34.644Z,25984
2017-05-28T10:01:34.503Z,25568
2017-05-28T10:02:34.831Z,25152
2017-05-28T10:03:28.539Z,25760
2017-05-28T10:04:23.649Z,26784
2017-05-28T10:05:24.142Z,27936
2017-05-28T10:06:24.233Z,28864
2017-05-28T10:07:18.849Z,29216
2017-05-28T10:08:07.938Z,28896
2017-05-28T10:09:07.973Z,32000
2017-05-28T10:10:03.062Z,35232
2017-05-28T10:10:57.223Z,41728
2017-05-28T10:11:52.165Z,65920
2017-05-28T10:12:47.232Z,56864
2017-05-28T10:13:36.672Z,76288
2017-05-28T10:14:30.659Z,63776
2017-05-28T10:15:18.524Z,59168
2017-05-28T10:16:13.045Z,46464
2017-05-28T10:17:01.714Z,42560
2017-05-28T10:17:50.739Z,46176
2017-05-28T10:18:45.637Z,46400
2017-05-28T10:19:33.919Z,81312
2017-05-28T10:20:22.932Z,89152
2017-05-28T10:21:17.046Z,73472
2017-05-28T10:22:12.544Z,113248
2017-05-28T10:23:07.423Z,66080
2017-05-28T10:24:07.965Z,48992
2017-05-28T10:25:01.746Z,73920
2017-05-28T10:25:50.572Z,114656
2017-05-28T10:26:50.877Z,114176
2017-05-28T10:27:50.609Z,77568
2017-05-28T10:28:45.236Z,45600
2017-05-28T10:29:39.110Z,92192
2017-05-28T10:30:32.844Z,94240
2017-05-28T10:31:20.949Z,123008
2017-05-28T10:32:14.990Z,49664
2017-05-28T10:33:15.139Z,60128
2017-05-28T10:34:15.556Z,53472
2017-05-28T10:35:04.693Z,54528
2017-05-28T10:35:58.737Z,53664
2017-05-28T10:36:59.809Z,47104
2017-05-28T10:37:53.936Z,44608
2017-05-28T10:38:43.009Z,51424
2017-05-28T10:39:32.078Z,44928
2017-05-28T10:40:26.679Z,51680
2017-05-28T10:41:15.230Z,44960
2017-05-28T10:42:10.229Z,64640
2017-05-28T10:43:09.938Z,40256
2017-05-28T10:44:10.273Z,39520
2017-05-28T10:45:11.135Z,23552
2017-05-28T10:46:11.236Z,40512
2017-05-28T10:47:11.236Z,40192
2017-05-28T10:48:00.363Z,41536
2017-05-28T10:48:54.436Z,23904
2017-05-28T10:49:48.667Z,33920
2017-05-28T10:50:49.540Z,41504
2017-05-28T10:51:44.686Z,42848
2017-05-28T10:52:38.719Z,48480
2017-05-28T10:53:32.808Z,59296
2017-05-28T10:54:20.931Z,48384
2017-05-28T10:55:14.924Z,45088
2017-05-28T10:56:15.020Z,54944
2017-05-28T10:57:09.635Z,41248
2017-05-28T10:58:09.203Z,41280
2017-05-28T10:59:09.422Z,40928
2017-05-28T11:00:03.372Z,40576
2017-05-28T11:00:57.428Z,39776
2017-05-28T11:01:51.509Z,39008
2017-05-28T11:02:51.583Z,37888
2017-05-28T11:03:51.682Z,36864
2017-05-28T11:04:46.750Z,29536
2017-05-28T11:05:40.844Z,35104
2017-05-28T11:06:40.893Z,33888
2017-05-28T11:07:41.003Z,34464
2017-05-28T11:08:41.073Z,34560
2017-05-28T11:09:36.128Z,33792
2017-05-28T11:10:31.227Z,19776
2017-05-28T11:11:32.667Z,32768
2017-05-28T11:12:27.318Z,31808
2017-05-28T11:13:15.449Z,28640
2017-05-28T11:14:03.603Z,21472
2017-05-28T11:14:58.094Z,24576
2017-05-28T11:15:57.687Z,34592
2017-05-28T11:16:57.809Z,35712
2017-05-28T11:17:52.897Z,38624
2017-05-28T11:18:48.646Z,49472
2017-05-28T11:19:42.929Z,46208
2017-05-28T11:20:38.046Z,38976
2017-05-28T11:21:32.470Z,44736
2017-05-28T11:22:33.199Z,73536
2017-05-28T11:23:33.283Z,96576
2017-05-28T11:24:28.336Z,54848
2017-05-28T11:25:23.454Z,84288
2017-05-28T11:26:17.827Z,81056
2017-05-28T11:27:06.564Z,82464
2017-05-28T11:28:01.706Z,100576
2017-05-28T11:28:55.708Z,102112
2017-05-28T11:29:49.810Z,107456
2017-05-28T11:30:43.928Z,97216
2017-05-28T11:31:38.450Z,98336
2017-05-28T11:32:33.475Z,94400
2017-05-28T11:33:33.251Z,81184
2017-05-28T11:34:21.397Z,52416
2017-05-28T11:35:16.250Z,44448
2017-05-28T11:36:10.358Z,41984
2017-05-28T11:37:05.448Z,37888
2017-05-28T11:38:00.554Z,42624
2017-05-28T11:39:00.571Z,47104
2017-05-28T11:40:00.676Z,57248
2017-05-28T11:40:54.727Z,78560
2017-05-28T11:41:42.903Z,90144
2017-05-28T11:42:36.946Z,122752
2017-05-28T11:43:31.027Z,126880
2017-05-28T11:44:31.183Z,89568
2017-05-28T11:45:31.287Z,98176
2017-05-28T11:46:26.396Z,61088
2017-05-28T11:47:22.158Z,72256
2017-05-28T11:48:14.756Z,45248
2017-05-28T11:49:14.809Z,50240
2017-05-28T11:50:09.969Z,46496
2017-05-28T11:51:09.650Z,56000
2017-05-28T11:52:09.725Z,70368
2017-05-28T11:53:09.834Z,103552
2017-05-28T11:54:09.913Z,110048
2017-05-28T11:55:04.042Z,108736
2017-05-28T11:55:59.139Z,111360
2017-05-28T11:56:54.138Z,111008
2017-05-28T11:57:54.410Z,111168
2017-05-28T11:58:48.885Z,110304
2017-05-28T11:59:43.609Z,107744
2017-05-28T12:00:37.467Z,104448
2017-05-28T12:01:32.984Z,100992
2017-05-28T12:02:32.611Z,79072
2017-05-28T12:03:34.214Z,87904
2017-05-28T12:04:28.835Z,83072
2017-05-28T12:05:17.855Z,84864
2017-05-28T12:06:13.462Z,91456
2017-05-28T12:07:08.223Z,98688
2017-05-28T12:07:57.359Z,103808
2017-05-28T12:08:57.388Z,110688
2017-05-28T12:09:51.580Z,108416
2017-05-28T12:10:40.319Z,99360
2017-05-28T12:11:34.454Z,88608
2017-05-28T12:12:23.865Z,80032
2017-05-28T12:13:13.094Z,76608
2017-05-28T12:14:07.229Z,77408
2017-05-28T12:15:01.162Z,82144
2017-05-28T12:15:55.058Z,88576